Time;durP1;ratioP1;P1;durP2;ratioP2;P2;SDS_P1;SDS_P2;PMS_P1;PMS_P2;Temp;Humidity;BMP_temperature;BMP_pressure;BME280_temperature;BME280_humidity;BME280_pressure;Samples;Min_cycle;Max_cycle;Signal;HPM_P1;HPM_P2
2022/03/07 00:00:00;;;;;;;5.63;3.35;;;1.90;99.90;;;;;;4983314;28;20092;-84
2022/03/07 00:02:26;;;;;;;7.05;3.53;;;1.80;99.90;;;;;;5022514;28;20042;-85
2022/03/07 00:04:52;;;;;;;7.15;4.07;;;1.80;99.90;;;;;;5021175;28;20127;-84
2022/03/07 00:07:17;;;;;;;6.85;3.28;;;1.70;99.90;;;;;;5018185;28;20034;-84
2022/03/07 00:09:43;;;;;;;8.77;3.83;;;1.60;99.90;;;;;;5008889;28;20042;-84
2022/03/07 00:12:09;;;;;;;8.10;3.83;;;1.60;99.90;;;;;;4998876;28;20132;-84
2022/03/07 00:14:34;;;;;;;9.05;3.92;;;1.50;99.90;;;;;;5023936;28;20367;-84
2022/03/07 00:17:00;;;;;;;7.18;3.67;;;1.50;99.90;;;;;;5024072;28;21775;-84
2022/03/07 00:19:29;;;;;;;5.55;3.28;;;1.50;99.90;;;;;;5022898;28;20041;-85
2022/03/07 00:21:54;;;;;;;7.03;3.28;;;1.50;99.90;;;;;;5026994;28;20096;-83
2022/03/07 00:24:20;;;;;;;7.55;3.60;;;1.40;99.90;;;;;;5007063;28;20045;-84
2022/03/07 00:26:45;;;;;;;19.90;4.97;;;1.40;99.90;;;;;;5011441;28;20037;-84
2022/03/07 00:29:11;;;;;;;7.18;3.90;;;1.30;99.90;;;;;;5027788;28;20115;-84
2022/03/07 00:31:36;;;;;;;7.18;3.67;;;1.30;99.90;;;;;;5026902;28;20049;-84
2022/03/07 00:34:02;;;;;;;6.72;3.30;;;1.20;99.90;;;;;;5009477;28;20041;-84
2022/03/07 00:36:28;;;;;;;9.63;3.95;;;1.20;99.90;;;;;;5001430;28;20045;-84
2022/03/07 00:38:53;;;;;;;6.53;3.78;;;1.10;99.90;;;;;;5023558;28;20037;-84
2022/03/07 00:41:19;;;;;;;6.82;3.60;;;1.10;99.90;;;;;;5030670;28;20046;-84
2022/03/07 00:43:44;;;;;;;9.77;3.40;;;1.10;99.90;;;;;;5031454;28;20381;-85
2022/03/07 00:46:10;;;;;;;7.70;4.22;;;1.10;99.90;;;;;;5009864;28;20045;-84
2022/03/07 00:48:36;;;;;;;7.80;3.58;;;1.00;99.90;;;;;;5007087;28;20045;-84
2022/03/07 00:51:01;;;;;;;6.90;3.88;;;1.00;99.90;;;;;;5003921;28;20049;-84
2022/03/07 00:53:27;;;;;;;10.88;4.05;;;1.00;99.90;;;;;;5018701;28;20119;-84
2022/03/07 00:55:55;;;;;;;7.03;3.95;;;0.90;99.90;;;;;;5025434;28;20470;-84
2022/03/07 00:58:21;;;;;;;6.78;3.63;;;0.90;99.90;;;;;;5009119;28;20049;-84
2022/03/07 01:00:48;;;;;;;7.15;4.50;;;0.90;99.90;;;;;;5006481;28;20083;-84
2022/03/07 01:03:14;;;;;;;8.02;4.03;;;0.80;99.90;;;;;;5013853;28;20049;-84
2022/03/07 01:05:41;;;;;;;9.73;4.38;;;0.80;99.90;;;;;;5033742;28;20045;-84
2022/03/07 01:08:08;;;;;;;10.23;4.15;;;0.80;99.90;;;;;;5039412;28;20033;-84
2022/03/07 01:10:34;;;;;;;8.02;4.47;;;0.80;99.90;;;;;;5033697;28;20045;-84
2022/03/07 01:13:00;;;;;;;6.75;3.78;;;0.70;99.90;;;;;;5037476;28;20087;-84
2022/03/07 01:15:26;;;;;;;10.63;4.20;;;0.70;99.90;;;;;;5012877;28;20527;-84
2022/03/07 01:17:53;;;;;;;8.23;4.25;;;0.70;99.90;;;;;;5043727;28;20048;-84
2022/03/07 01:20:19;;;;;;;8.07;4.35;;;0.70;99.90;;;;;;5031735;28;20083;-85
2022/03/07 01:22:45;;;;;;;11.13;4.65;;;0.60;99.90;;;;;;5010649;28;20045;-84
2022/03/07 01:25:10;;;;;;;7.70;3.97;;;0.60;99.90;;;;;;5035613;28;20119;-84
2022/03/07 01:27:36;;;;;;;7.45;4.28;;;0.60;99.90;;;;;;5015484;28;20045;-84
2022/03/07 01:30:03;;;;;;;7.07;3.50;;;0.60;99.90;;;;;;5037828;28;20045;-84
2022/03/07 01:32:29;;;;;;;7.20;4.13;;;0.60;99.90;;;;;;5034809;28;20438;-84
2022/03/07 01:34:55;;;;;;;9.48;4.25;;;0.60;99.90;;;;;;5032553;28;20040;-84
2022/03/07 01:37:20;;;;;;;8.68;4.65;;;0.60;99.90;;;;;;5031959;28;20120;-84
2022/03/07 01:39:46;;;;;;;7.43;3.53;;;0.60;99.90;;;;;;5025213;28;20048;-84
2022/03/07 01:42:11;;;;;;;8.20;4.20;;;0.50;99.90;;;;;;5010564;28;20480;-84
2022/03/07 01:44:37;;;;;;;8.02;4.45;;;0.50;99.90;;;;;;5032957;28;20029;-85
2022/03/07 01:47:04;;;;;;;9.35;4.47;;;0.50;99.90;;;;;;5028891;28;20170;-84
2022/03/07 01:49:30;;;;;;;13.60;5.60;;;0.50;99.90;;;;;;5022730;28;20044;-84
2022/03/07 01:51:57;;;;;;;9.63;4.40;;;0.50;99.90;;;;;;5030689;28;20037;-84
2022/03/07 01:54:24;;;;;;;7.70;4.25;;;0.40;99.90;;;;;;5014096;28;20500;-84
2022/03/07 01:56:51;;;;;;;7.95;3.70;;;0.40;99.90;;;;;;5024558;28;20060;-84
2022/03/07 01:59:25;;;;;;;9.60;5.28;;;0.40;99.90;;;;;;5033681;28;20400;-84
2022/03/07 02:01:51;;;;;;;8.52;4.53;;;0.30;99.90;;;;;;5032052;28;20077;-84
2022/03/07 02:04:16;;;;;;;11.73;4.32;;;0.30;99.90;;;;;;5027372;28;20139;-84
2022/03/07 02:06:45;;;;;;;8.13;3.88;;;0.30;99.90;;;;;;5003072;28;20037;-83
2022/03/07 02:09:11;;;;;;;10.52;4.40;;;0.30;99.90;;;;;;5020982;28;20117;-84
2022/03/07 02:11:38;;;;;;;7.95;4.70;;;0.20;99.90;;;;;;5012995;28;20041;-83
2022/03/07 02:14:19;;;;;;;9.55;4.28;;;0.20;99.90;;;;;;5013773;28;20048;-83
2022/03/07 02:16:45;;;;;;;7.82;3.97;;;0.20;99.90;;;;;;5013449;28;20053;-84
2022/03/07 02:19:12;;;;;;;9.57;4.60;;;0.20;99.90;;;;;;5026923;28;20558;-84
2022/03/07 02:21:44;;;;;;;8.63;5.00;;;0.10;99.90;;;;;;5007058;28;20064;-84
2022/03/07 02:24:10;;;;;;;;;;;0.10;99.90;;;;;;5024703;28;20060;-84
2022/03/07 02:26:35;;;;;;;8.88;4.45;;;0.10;99.90;;;;;;5027946;28;20002;-83
2022/03/07 02:29:01;;;;;;;9.50;4.82;;;0.10;99.90;;;;;;5030663;28;20056;-83
2022/03/07 02:31:29;;;;;;;10.88;5.43;;;0.00;99.90;;;;;;5012411;28;20056;-84
2022/03/07 02:33:55;;;;;;;8.52;4.78;;;0.00;99.90;;;;;;5023745;28;20123;-84
2022/03/07 02:36:21;;;;;;;8.75;4.75;;;0.00;99.90;;;;;;5027648;28;20500;-84
2022/03/07 02:38:47;;;;;;;9.15;4.03;;;-0.10;99.90;;;;;;5008733;28;20048;-84
2022/03/07 02:41:13;;;;;;;9.80;4.88;;;-0.10;99.90;;;;;;5028538;28;20670;-84
2022/03/07 02:43:38;;;;;;;10.32;4.57;;;-0.10;99.90;;;;;;5013966;28;20083;-83
2022/03/07 02:46:05;;;;;;;9.02;4.90;;;-0.10;99.90;;;;;;5029542;28;20042;-83
2022/03/07 02:48:30;;;;;;;10.90;5.57;;;-0.10;99.90;;;;;;5030882;28;20056;-83
2022/03/07 02:50:58;;;;;;;9.35;4.30;;;-0.10;99.90;;;;;;5029807;28;20033;-84
2022/03/07 02:53:24;;;;;;;8.68;4.45;;;-0.10;99.90;;;;;;5009574;28;20037;-84
2022/03/07 02:55:50;;;;;;;11.30;5.18;;;-0.20;99.90;;;;;;5021845;28;21770;-83
2022/03/07 02:58:15;;;;;;;10.48;5.65;;;-0.10;99.90;;;;;;5012138;28;20137;-83
2022/03/07 03:00:41;;;;;;;8.35;4.32;;;-0.20;99.90;;;;;;5011495;28;20143;-83
2022/03/07 03:03:07;;;;;;;10.20;5.07;;;-0.20;99.90;;;;;;5030485;28;20564;-84
2022/03/07 03:05:32;;;;;;;8.93;4.60;;;-0.20;99.90;;;;;;5010522;28;20127;-84
2022/03/07 03:07:58;;;;;;;8.98;4.72;;;-0.20;99.90;;;;;;5036427;28;20132;-84
2022/03/07 03:10:23;;;;;;;12.88;5.22;;;-0.20;99.90;;;;;;5024538;28;20036;-84
2022/03/07 03:12:49;;;;;;;8.75;4.88;;;-0.20;99.90;;;;;;5032698;28;20045;-83
2022/03/07 03:15:15;;;;;;;9.30;5.22;;;-0.30;99.90;;;;;;5019811;28;20481;-83
2022/03/07 03:17:42;;;;;;;8.70;4.35;;;-0.30;99.90;;;;;;5032248;28;20041;-83
2022/03/07 03:20:10;;;;;;;8.05;4.05;;;-0.30;99.90;;;;;;5047538;28;20542;-84
2022/03/07 03:22:37;;;;;;;8.88;4.82;;;-0.30;99.90;;;;;;5036052;28;20045;-83
2022/03/07 03:25:03;;;;;;;8.73;4.65;;;-0.30;99.90;;;;;;5034677;28;20466;-83
2022/03/07 03:27:29;;;;;;;8.60;4.40;;;-0.30;99.90;;;;;;5017061;28;20044;-83
2022/03/07 03:29:54;;;;;;;8.95;4.80;;;-0.40;99.90;;;;;;5034803;28;20086;-84
2022/03/07 03:32:20;;;;;;;9.27;4.32;;;-0.40;99.90;;;;;;5034735;28;20044;-83
2022/03/07 03:34:46;;;;;;;11.00;5.57;;;-0.40;99.90;;;;;;5031237;28;20057;-84
2022/03/07 03:37:11;;;;;;;8.75;4.72;;;-0.40;99.90;;;;;;5035493;28;21618;-84
2022/03/07 03:39:37;;;;;;;8.23;4.85;;;-0.40;99.90;;;;;;5034541;28;20084;-83
2022/03/07 03:42:03;;;;;;;10.05;5.40;;;-0.50;99.90;;;;;;5039567;28;20049;-84
2022/03/07 03:44:28;;;;;;;9.20;4.78;;;-0.50;99.90;;;;;;5036798;28;20166;-84
2022/03/07 03:46:54;;;;;;;9.57;4.85;;;-0.50;99.90;;;;;;5029589;28;20037;-83
2022/03/07 03:49:20;;;;;;;13.07;5.60;;;-0.50;99.90;;;;;;5033640;28;20447;-84
2022/03/07 03:51:45;;;;;;;8.93;4.97;;;-0.60;99.90;;;;;;5035028;28;20029;-83
2022/03/07 03:54:11;;;;;;;9.13;4.95;;;-0.60;99.90;;;;;;5016808;28;20163;-83
2022/03/07 03:56:37;;;;;;;9.73;4.50;;;-0.60;99.90;;;;;;5016839;28;20413;-83
2022/03/07 03:59:03;;;;;;;8.50;4.45;;;-0.60;99.90;;;;;;5031145;28;20033;-84
2022/03/07 04:01:28;;;;;;;8.25;4.68;;;-0.60;99.90;;;;;;5013426;28;20056;-83
2022/03/07 04:03:54;;;;;;;7.65;4.43;;;-0.60;99.90;;;;;;5028519;28;20474;-83
2022/03/07 04:06:19;;;;;;;11.68;4.35;;;-0.60;99.90;;;;;;5029301;28;20466;-83
2022/03/07 04:09:05;;;;;;;9.57;4.68;;;-0.60;99.90;;;;;;5031141;28;20040;-84
2022/03/07 04:11:31;;;;;;;10.27;4.63;;;-0.70;99.90;;;;;;5013298;28;20037;-83
2022/03/07 04:13:56;;;;;;;12.52;5.53;;;-0.70;99.90;;;;;;5019292;28;20099;-84
2022/03/07 04:16:22;;;;;;;9.70;4.40;;;-0.70;99.90;;;;;;5032366;28;20045;-84
2022/03/07 04:18:47;;;;;;;11.30;5.07;;;-0.70;99.90;;;;;;5019153;28;20105;-84
2022/03/07 04:21:14;;;;;;;10.65;5.40;;;-0.80;99.90;;;;;;5031966;28;20052;-84
2022/03/07 04:23:40;;;;;;;11.90;6.13;;;-0.80;99.90;;;;;;5034398;28;20441;-84
2022/03/07 04:26:06;;;;;;;10.65;5.70;;;-0.80;99.90;;;;;;5032417;28;20093;-83
2022/03/07 04:28:32;;;;;;;12.77;4.78;;;-0.80;99.90;;;;;;5033142;28;20045;-83
2022/03/07 04:30:58;;;;;;;9.63;5.00;;;-0.90;99.90;;;;;;5031007;28;20037;-83
2022/03/07 04:33:24;;;;;;;10.30;4.75;;;-0.90;99.90;;;;;;5035341;28;20136;-84
2022/03/07 04:35:50;;;;;;;11.80;5.47;;;-0.90;99.90;;;;;;5031600;28;20052;-83
2022/03/07 04:38:16;;;;;;;9.52;4.38;;;-1.00;99.90;;;;;;5033588;28;20048;-83
2022/03/07 04:40:41;;;;;;;8.90;4.95;;;-1.00;99.90;;;;;;5032108;28;20098;-84
2022/03/07 04:43:07;;;;;;;9.02;4.40;;;-1.00;99.90;;;;;;5030791;28;20409;-84
2022/03/07 04:45:33;;;;;;;7.95;4.40;;;-1.00;99.90;;;;;;5033665;28;20065;-83
2022/03/07 04:47:58;;;;;;;11.00;5.30;;;-1.00;99.90;;;;;;5040006;28;20095;-84
2022/03/07 04:50:24;;;;;;;9.10;4.60;;;-1.00;99.90;;;;;;5016119;28;20531;-83
2022/03/07 04:52:49;;;;;;;9.13;4.68;;;-1.10;99.90;;;;;;5014068;28;20079;-84
2022/03/07 04:55:15;;;;;;;9.80;4.63;;;-1.10;99.90;;;;;;5031653;28;20033;-83
2022/03/07 04:57:43;;;;;;;12.30;5.13;;;-1.10;99.90;;;;;;5031842;28;20106;-83
2022/03/07 05:00:10;;;;;;;8.73;4.50;;;-1.10;99.90;;;;;;5014721;28;20037;-83
2022/03/07 05:02:36;;;;;;;10.07;4.97;;;-1.10;99.90;;;;;;5012513;28;20056;-83
2022/03/07 05:05:01;;;;;;;10.75;5.60;;;-1.10;99.90;;;;;;5031345;28;20044;-83
2022/03/07 05:07:27;;;;;;;15.05;6.28;;;-1.10;99.90;;;;;;5030961;28;20049;-83
2022/03/07 05:09:52;;;;;;;12.35;6.78;;;-1.10;99.90;;;;;;5048913;28;20630;-83
2022/03/07 05:12:18;;;;;;;11.98;5.55;;;-1.10;99.90;;;;;;5033281;28;20082;-84
2022/03/07 05:14:44;;;;;;;9.25;4.80;;;-1.10;99.90;;;;;;5012992;28;20044;-83
2022/03/07 05:17:09;;;;;;;11.75;5.32;;;-1.10;99.90;;;;;;5030408;28;20060;-83
2022/03/07 05:19:35;;;;;;;11.63;6.45;;;-1.10;99.90;;;;;;5029983;28;20052;-83
2022/03/07 05:22:01;;;;;;;12.75;5.88;;;-1.10;99.90;;;;;;5029318;28;20030;-83
2022/03/07 05:24:27;;;;;;;10.85;5.65;;;-1.10;99.90;;;;;;5043047;28;20033;-83
2022/03/07 05:26:53;;;;;;;13.45;5.65;;;-1.10;99.90;;;;;;5013369;28;20124;-83
2022/03/07 05:29:19;;;;;;;13.82;6.28;;;-1.10;99.90;;;;;;5029752;28;20030;-83
2022/03/07 05:31:45;;;;;;;11.50;5.50;;;-1.10;99.90;;;;;;5031596;28;20444;-83
2022/03/07 05:34:10;;;;;;;11.15;5.68;;;-1.00;99.90;;;;;;5011904;28;20102;-84
2022/03/07 05:36:36;;;;;;;9.63;4.80;;;-1.00;99.90;;;;;;5010051;28;20108;-83
2022/03/07 05:39:03;;;;;;;11.40;5.68;;;-1.00;99.90;;;;;;5031283;28;20040;-83
2022/03/07 05:41:29;;;;;;;12.85;6.55;;;-1.00;99.90;;;;;;5030429;28;20045;-83
2022/03/07 05:43:54;;;;;;;12.10;5.95;;;-1.00;99.90;;;;;;5030826;28;20041;-83
2022/03/07 05:46:20;;;;;;;12.05;6.45;;;-1.00;99.90;;;;;;5029713;28;20175;-84
2022/03/07 05:48:46;;;;;;;10.23;5.35;;;-1.00;99.90;;;;;;5028340;28;20045;-84
2022/03/07 05:51:12;;;;;;;18.50;6.90;;;-1.00;99.90;;;;;;5030572;28;20043;-83
2022/03/07 05:53:37;;;;;;;14.70;6.00;;;-1.00;99.90;;;;;;5022579;28;20041;-83
2022/03/07 05:56:03;;;;;;;10.38;5.55;;;-1.00;99.90;;;;;;5033776;28;20086;-84
2022/03/07 05:58:29;;;;;;;11.52;5.35;;;-1.00;99.90;;;;;;5012692;28;20045;-84
2022/03/07 06:00:55;;;;;;;12.30;5.70;;;-1.00;99.90;;;;;;5032498;28;20064;-83
2022/03/07 06:03:21;;;;;;;8.95;4.80;;;-1.00;99.90;;;;;;5013542;28;20415;-83
2022/03/07 06:05:46;;;;;;;10.52;5.30;;;-1.00;99.90;;;;;;5034173;28;20025;-83
2022/03/07 06:08:12;;;;;;;11.93;5.28;;;-1.00;99.90;;;;;;5013303;28;20039;-84
2022/03/07 06:10:37;;;;;;;11.02;5.57;;;-1.00;99.90;;;;;;5034989;28;20461;-83
2022/03/07 06:13:03;;;;;;;9.32;4.80;;;-1.00;99.90;;;;;;5014245;28;20041;-83
2022/03/07 06:15:28;;;;;;;10.30;5.13;;;-1.10;99.90;;;;;;5032153;28;20033;-83
2022/03/07 06:17:58;;;;;;;9.90;3.90;;;-1.10;99.90;;;;;;5031284;28;20083;-84
2022/03/07 06:20:24;;;;;;;9.02;3.90;;;-1.20;99.90;;;;;;5029936;28;20080;-84
2022/03/07 06:22:50;;;;;;;15.52;6.15;;;-1.10;99.90;;;;;;5033145;28;20071;-83
2022/03/07 06:25:16;;;;;;;9.13;4.82;;;-1.20;99.90;;;;;;5028100;28;20060;-83
2022/03/07 06:27:42;;;;;;;9.52;5.30;;;-1.20;99.90;;;;;;5014268;28;20401;-83
2022/03/07 06:30:08;;;;;;;13.20;5.68;;;-1.20;99.90;;;;;;5031706;28;20037;-83
2022/03/07 06:32:38;;;;;;;10.85;4.97;;;-1.20;99.90;;;;;;5016527;28;20037;-83
2022/03/07 06:35:05;;;;;;;12.63;6.22;;;-1.10;99.90;;;;;;5012306;28;20056;-84
2022/03/07 06:37:31;;;;;;;11.15;5.10;;;-1.10;99.90;;;;;;5033779;28;20100;-84
2022/03/07 06:39:57;;;;;;;14.95;5.47;;;-1.10;99.90;;;;;;5040203;28;20167;-84
2022/03/07 06:42:23;;;;;;;8.50;4.85;;;-1.00;99.90;;;;;;5038596;28;20033;-84
2022/03/07 06:44:48;;;;;;;12.10;6.22;;;-1.00;99.90;;;;;;5034685;28;20039;-83
2022/03/07 06:47:14;;;;;;;11.02;5.65;;;-1.00;99.90;;;;;;5017386;28;20463;-84
2022/03/07 06:49:40;;;;;;;11.50;5.15;;;-0.90;99.90;;;;;;5045297;28;20087;-84
2022/03/07 06:52:06;;;;;;;10.20;5.32;;;-1.00;99.90;;;;;;5040646;28;20094;-84
2022/03/07 06:54:32;;;;;;;13.95;6.28;;;-0.90;99.90;;;;;;5023596;28;20036;-84
2022/03/07 06:56:58;;;;;;;13.32;6.15;;;-0.90;99.90;;;;;;5035970;28;20033;-84
2022/03/07 06:59:23;;;;;;;10.50;4.43;;;-0.90;99.90;;;;;;5036408;28;20051;-84
2022/03/07 07:01:49;;;;;;;18.20;5.68;;;-0.90;99.90;;;;;;5035922;28;20056;-84
2022/03/07 07:04:15;;;;;;;15.55;6.07;;;-0.90;99.90;;;;;;5020679;28;20077;-85
2022/03/07 07:06:40;;;;;;;9.60;5.40;;;-0.80;99.90;;;;;;5016622;28;20037;-85
2022/03/07 07:09:06;;;;;;;12.13;6.45;;;-0.80;99.90;;;;;;5035029;28;20039;-85
2022/03/07 07:11:31;;;;;;;15.25;6.53;;;-0.70;99.90;;;;;;5036661;28;20098;-85
2022/03/07 07:13:57;;;;;;;15.68;6.47;;;-0.70;99.90;;;;;;5041327;28;20058;-84
2022/03/07 07:16:23;;;;;;;14.57;5.60;;;-0.70;99.90;;;;;;5025704;28;20197;-85
2022/03/07 07:18:48;;;;;;;28.42;7.55;;;-0.60;99.90;;;;;;5039965;28;20098;-84
2022/03/07 07:21:14;;;;;;;10.32;5.45;;;-0.60;99.90;;;;;;5037399;28;20066;-84
2022/03/07 07:23:39;;;;;;;20.20;7.25;;;-0.60;99.90;;;;;;5036121;28;20041;-85
2022/03/07 07:26:06;;;;;;;14.18;6.15;;;-0.60;99.90;;;;;;5015334;28;20049;-85
2022/03/07 07:28:32;;;;;;;15.38;6.47;;;-0.50;99.90;;;;;;5022096;28;20044;-84
2022/03/07 07:30:58;;;;;;;13.18;6.22;;;-0.50;99.90;;;;;;5017649;28;20405;-84
2022/03/07 07:33:23;;;;;;;11.82;5.20;;;-0.40;99.90;;;;;;5037970;28;20122;-85
2022/03/07 07:35:49;;;;;;;14.30;5.53;;;-0.40;99.90;;;;;;5036402;28;20045;-84
2022/03/07 07:38:15;;;;;;;14.18;6.15;;;-0.30;99.90;;;;;;5015361;28;20029;-84
2022/03/07 07:40:41;;;;;;;17.02;7.05;;;-0.30;99.90;;;;;;5033424;28;20528;-85
2022/03/07 07:43:09;;;;;;;19.00;6.63;;;-0.20;99.90;;;;;;5019933;28;20045;-84
2022/03/07 07:45:35;;;;;;;19.67;6.07;;;-0.10;99.90;;;;;;5038217;28;20487;-84
2022/03/07 07:48:01;;;;;;;18.48;7.75;;;-0.10;99.90;;;;;;5031734;28;20037;-84
2022/03/07 07:50:28;;;;;;;14.25;6.20;;;0.00;99.90;;;;;;5017928;28;20040;-85
2022/03/07 07:52:55;;;;;;;16.90;8.35;;;0.10;99.90;;;;;;5018600;28;20051;-84
2022/03/07 07:55:22;;;;;;;11.98;6.88;;;0.20;99.90;;;;;;5017130;28;20127;-84
2022/03/07 07:57:47;;;;;;;20.77;8.63;;;0.20;99.90;;;;;;5033770;28;20079;-84
2022/03/07 08:00:15;;;;;;;13.75;7.32;;;0.30;99.90;;;;;;5016241;28;20040;-84
2022/03/07 08:02:42;;;;;;;15.80;9.68;;;0.40;99.90;;;;;;5028298;28;20050;-85
2022/03/07 08:05:08;;;;;;;16.88;9.27;;;0.50;99.90;;;;;;5030904;28;20068;-85
2022/03/07 08:07:34;;;;;;;12.25;7.00;;;0.50;99.90;;;;;;5017860;28;20420;-85
2022/03/07 08:10:01;;;;;;;16.08;9.10;;;0.60;99.90;;;;;;5032795;28;20108;-85
2022/03/07 08:12:27;;;;;;;18.27;7.50;;;0.60;99.90;;;;;;5034297;28;20102;-84
2022/03/07 08:14:52;;;;;;;13.85;8.00;;;0.70;99.90;;;;;;5037588;28;20037;-85
2022/03/07 08:17:18;;;;;;;15.18;7.80;;;0.70;99.90;;;;;;5035601;28;20037;-85
2022/03/07 08:19:44;;;;;;;16.08;7.78;;;0.80;99.90;;;;;;5026475;28;20124;-84
2022/03/07 08:22:09;;;;;;;14.30;7.10;;;0.90;99.90;;;;;;5033849;28;20037;-85
2022/03/07 08:24:35;;;;;;;16.67;8.50;;;1.00;99.90;;;;;;5033035;28;20079;-84
2022/03/07 08:27:00;;;;;;;14.10;7.07;;;1.10;99.90;;;;;;5035701;28;20488;-84
2022/03/07 08:29:26;;;;;;;14.20;7.82;;;1.20;99.90;;;;;;5018854;28;20052;-84
2022/03/07 08:31:52;;;;;;;15.63;8.02;;;1.30;99.90;;;;;;5040584;28;20389;-85
2022/03/07 08:34:17;;;;;;;20.60;9.18;;;1.40;99.90;;;;;;5013576;28;20040;-85
2022/03/07 08:36:43;;;;;;;15.55;8.48;;;1.50;99.90;;;;;;5017820;28;20459;-85
2022/03/07 08:39:08;;;;;;;16.27;7.43;;;1.60;99.90;;;;;;5030966;28;20501;-85
2022/03/07 08:41:34;;;;;;;15.68;6.72;;;1.70;99.90;;;;;;5019696;28;20049;-84
2022/03/07 08:44:00;;;;;;;12.70;5.45;;;1.80;99.90;;;;;;5033270;28;20070;-85
2022/03/07 08:46:26;;;;;;;12.93;6.70;;;1.90;99.90;;;;;;5033832;28;20017;-84
2022/03/07 08:48:52;;;;;;;14.43;7.45;;;2.00;99.90;;;;;;5035308;28;20041;-84
2022/03/07 08:51:18;;;;;;;10.05;6.43;;;2.10;99.90;;;;;;5031009;28;20056;-84
2022/03/07 08:53:43;;;;;;;11.48;5.90;;;2.30;99.90;;;;;;5020164;28;20072;-84
2022/03/07 08:56:10;;;;;;;8.90;5.53;;;2.40;99.90;;;;;;5022623;28;20044;-84
2022/03/07 08:58:36;;;;;;;9.98;4.40;;;2.50;99.90;;;;;;5013792;28;20047;-84
2022/03/07 09:01:01;;;;;;;12.00;6.40;;;2.60;99.90;;;;;;5028498;28;20061;-84
2022/03/07 09:03:27;;;;;;;8.60;5.55;;;2.70;99.90;;;;;;5019471;28;20457;-84
2022/03/07 09:05:52;;;;;;;8.68;5.28;;;2.90;99.90;;;;;;5027688;28;20410;-84
2022/03/07 09:08:18;;;;;;;9.68;5.85;;;2.90;99.90;;;;;;5023617;28;20040;-84
2022/03/07 09:10:43;;;;;;;9.65;5.75;;;3.00;99.90;;;;;;5031770;28;20037;-84
2022/03/07 09:13:09;;;;;;;9.40;5.22;;;3.20;99.90;;;;;;5029059;28;20049;-84
2022/03/07 09:15:35;;;;;;;10.15;5.07;;;3.30;99.90;;;;;;5011985;28;20047;-84
2022/03/07 09:18:01;;;;;;;9.43;4.40;;;3.40;99.90;;;;;;5032709;28;20044;-84
2022/03/07 09:20:27;;;;;;;9.02;5.05;;;3.50;99.90;;;;;;5019356;28;20039;-84
2022/03/07 09:22:52;;;;;;;8.15;4.90;;;3.60;99.90;;;;;;5021492;28;20493;-84
2022/03/07 09:25:18;;;;;;;9.77;5.30;;;3.70;99.90;;;;;;5016764;28;20041;-84
2022/03/07 09:27:45;;;;;;;9.80;5.22;;;3.80;99.90;;;;;;5022281;28;20492;-84
2022/03/07 09:30:12;;;;;;;7.05;4.50;;;3.90;99.90;;;;;;5031965;28;20401;-84
2022/03/07 09:32:37;;;;;;;11.85;5.65;;;4.00;99.90;;;;;;5034682;28;20508;-84
2022/03/07 09:35:04;;;;;;;9.25;5.07;;;4.20;99.90;;;;;;5030753;28;20038;-84
2022/03/07 09:37:30;;;;;;;7.18;4.07;;;4.20;99.90;;;;;;5035147;28;20062;-84
2022/03/07 09:39:55;;;;;;;5.93;3.60;;;4.40;99.90;;;;;;5016528;28;20037;-85
2022/03/07 09:42:21;;;;;;;9.55;4.30;;;4.40;99.90;;;;;;5031732;28;20033;-84
2022/03/07 09:44:48;;;;;;;8.98;4.22;;;4.50;99.90;;;;;;5032464;28;20612;-84
2022/03/07 09:47:15;;;;;;;8.65;4.35;;;4.60;99.90;;;;;;5013889;28;20060;-84
2022/03/07 09:49:40;;;;;;;7.75;4.32;;;4.70;99.90;;;;;;5031096;28;20049;-84
2022/03/07 09:52:06;;;;;;;10.32;5.20;;;4.80;99.90;;;;;;5032227;28;20100;-84
2022/03/07 09:54:32;;;;;;;7.63;4.40;;;4.90;99.90;;;;;;5035700;28;20375;-84
2022/03/07 09:56:57;;;;;;;9.10;4.72;;;5.00;99.90;;;;;;5020801;28;20047;-84
2022/03/07 09:59:23;;;;;;;10.25;4.60;;;5.00;99.90;;;;;;5035133;28;20486;-84
2022/03/07 10:02:05;;;;;;;12.00;4.80;;;5.10;99.90;;;;;;5026253;28;20077;-83
2022/03/07 10:04:38;;;;;;;9.80;4.15;;;5.20;99.90;;;;;;5030518;28;20465;-84
2022/03/07 10:07:03;;;;;;;5.78;3.35;;;5.30;99.90;;;;;;5026831;28;20044;-84
2022/03/07 10:09:30;;;;;;;7.10;4.00;;;5.30;99.90;;;;;;5031060;28;20025;-84
2022/03/07 10:12:00;;;;;;;8.45;3.17;;;5.40;99.90;;;;;;5032295;28;20574;-84
2022/03/07 10:14:45;;;;;;;7.97;4.30;;;5.40;99.90;;;;;;5031746;28;20044;-84
2022/03/07 10:17:24;;;;;;;5.07;3.08;;;5.50;99.90;;;;;;5035311;28;20124;-84
2022/03/07 10:19:52;;;;;;;6.03;2.33;;;5.60;99.90;;;;;;5029817;28;20033;-84
2022/03/07 10:22:23;;;;;;;5.88;2.88;;;5.80;99.90;;;;;;5034341;28;20689;-83
2022/03/07 10:25:01;;;;;;;5.20;2.37;;;5.80;99.90;;;;;;5016886;28;20417;-84
2022/03/07 10:27:33;;;;;;;5.22;2.90;;;5.90;99.90;;;;;;5019476;28;20755;-84
2022/03/07 10:29:59;;;;;;;5.57;3.13;;;5.90;99.90;;;;;;5032994;28;20045;-85
2022/03/07 10:32:25;;;;;;;6.15;2.85;;;6.00;99.90;;;;;;5034603;28;20466;-85
2022/03/07 10:34:51;;;;;;;6.05;3.38;;;6.10;99.90;;;;;;5028601;28;20037;-84
2022/03/07 10:37:17;;;;;;;7.22;3.10;;;6.20;99.90;;;;;;5033054;28;20030;-84
2022/03/07 10:39:48;;;;;;;5.75;2.75;;;6.20;99.40;;;;;;5016138;28;20083;-84
2022/03/07 10:42:16;;;;;;;5.68;2.50;;;6.20;99.70;;;;;;5033561;28;20041;-85
2022/03/07 10:44:41;;;;;;;7.05;2.95;;;6.30;99.50;;;;;;5030953;28;20064;-84
2022/03/07 10:47:16;;;;;;;5.25;2.45;;;6.40;99.00;;;;;;5033799;28;20050;-84
2022/03/07 10:49:48;;;;;;;6.50;2.65;;;6.40;98.60;;;;;;5024899;28;20084;-85
2022/03/07 10:52:16;;;;;;;4.93;2.28;;;6.50;98.50;;;;;;5026810;28;20052;-85
2022/03/07 10:54:42;;;;;;;4.78;2.60;;;6.60;97.60;;;;;;5022269;28;20030;-84
2022/03/07 10:57:09;;;;;;;5.75;2.95;;;6.60;97.20;;;;;;5012009;28;20026;-84
2022/03/07 10:59:37;;;;;;;5.47;2.28;;;6.60;96.70;;;;;;5025674;28;20125;-84
2022/03/07 11:02:11;;;;;;;3.90;2.45;;;6.60;96.70;;;;;;5016864;28;20049;-84
2022/03/07 11:04:38;;;;;;;5.15;2.67;;;6.90;96.30;;;;;;5014330;28;20116;-86
2022/03/07 11:07:05;;;;;;;3.75;1.80;;;7.10;95.20;;;;;;5010388;28;20374;-85
2022/03/07 11:09:31;;;;;;;5.47;2.25;;;7.30;94.90;;;;;;5036159;28;20071;-85
2022/03/07 11:11:57;;;;;;;5.85;2.42;;;7.50;94.30;;;;;;5037704;28;20125;-84
2022/03/07 11:14:26;;;;;;;4.40;2.13;;;7.70;93.30;;;;;;5027768;28;20329;-85
2022/03/07 11:16:56;;;;;;;4.30;2.10;;;7.90;91.90;;;;;;5016684;28;20049;-84
2022/03/07 11:19:26;;;;;;;5.63;1.90;;;8.00;91.50;;;;;;5021878;28;20115;-84
2022/03/07 11:21:53;;;;;;;5.88;1.98;;;8.20;91.10;;;;;;5030059;28;20508;-85
2022/03/07 11:24:21;;;;;;;3.70;1.95;;;8.10;90.10;;;;;;5030750;28;20042;-85
2022/03/07 11:26:48;;;;;;;4.68;2.00;;;8.00;90.50;;;;;;5033588;28;20039;-85
2022/03/07 11:29:15;;;;;;;4.47;2.22;;;8.00;90.10;;;;;;5013742;28;20045;-85
2022/03/07 11:31:41;;;;;;;5.10;2.20;;;8.00;89.70;;;;;;5032149;28;20041;-85
2022/03/07 11:34:09;;;;;;;3.95;1.90;;;8.10;90.20;;;;;;5027111;28;20033;-85
2022/03/07 11:36:44;;;;;;;4.32;2.10;;;8.20;89.70;;;;;;5029325;28;20037;-85
2022/03/07 11:39:11;;;;;;;6.57;2.13;;;8.40;88.30;;;;;;5032142;28;20071;-84
2022/03/07 11:41:39;;;;;;;5.38;2.20;;;8.50;88.50;;;;;;5034996;28;20037;-84
2022/03/07 11:44:09;;;;;;;3.60;1.60;;;8.60;84.90;;;;;;5027533;28;20083;-84
2022/03/07 11:46:39;;;;;;;4.88;1.77;;;8.70;86.20;;;;;;5030582;28;20466;-84
2022/03/07 11:49:07;;;;;;;5.90;1.67;;;8.80;85.90;;;;;;5020766;28;20040;-84
2022/03/07 11:51:36;;;;;;;4.18;1.77;;;9.00;83.00;;;;;;5018948;28;20041;-85
2022/03/07 11:54:03;;;;;;;3.45;1.58;;;9.00;80.70;;;;;;5016827;28;20063;-85
2022/03/07 11:56:33;;;;;;;4.30;1.50;;;9.00;80.90;;;;;;5019748;28;20076;-84
2022/03/07 11:59:01;;;;;;;3.17;1.73;;;9.20;79.40;;;;;;5032422;28;20122;-85
2022/03/07 12:01:28;;;;;;;4.05;1.33;;;9.30;80.30;;;;;;5015957;28;20045;-84
2022/03/07 12:03:54;;;;;;;2.83;1.30;;;9.50;78.60;;;;;;5030663;28;20046;-84
2022/03/07 12:06:22;;;;;;;3.28;1.50;;;9.70;76.20;;;;;;5024584;28;20103;-84
2022/03/07 12:08:57;;;;;;;5.20;1.40;;;9.90;73.10;;;;;;5032871;28;20493;-85
2022/03/07 12:11:34;;;;;;;3.88;1.13;;;9.90;70.80;;;;;;5028140;28;20045;-85
2022/03/07 12:14:06;;;;;;;5.07;1.17;;;10.10;66.90;;;;;;5026339;28;20056;-84
2022/03/07 12:16:37;;;;;;;2.60;1.30;;;10.30;67.20;;;;;;5027622;28;20509;-86
2022/03/07 12:19:12;;;;;;;4.22;1.25;;;10.50;62.40;;;;;;5010645;28;20493;-84
2022/03/07 12:21:43;;;;;;;3.90;1.38;;;11.00;62.50;;;;;;5020761;28;20107;-84
2022/03/07 12:24:10;;;;;;;2.65;1.30;;;11.50;60.60;;;;;;5030059;28;20055;-85
2022/03/07 12:26:48;;;;;;;2.38;0.98;;;12.00;57.90;;;;;;5033752;28;20064;-84
2022/03/07 12:29:18;;;;;;;2.13;1.00;;;12.50;55.70;;;;;;5020924;28;20064;-85
2022/03/07 12:31:51;;;;;;;2.22;1.10;;;12.80;53.80;;;;;;5031534;28;20498;-85
2022/03/07 12:34:22;;;;;;;4.63;1.23;;;13.30;52.90;;;;;;5010529;28;20056;-85
2022/03/07 12:37:10;;;;;;;2.95;1.10;;;13.70;53.40;;;;;;5031183;28;20045;-85
2022/03/07 12:40:08;;;;;;;3.88;1.33;;;13.90;50.00;;;;;;5025213;28;20080;-84
2022/03/07 12:42:38;;;;;;;2.15;0.90;;;14.10;49.20;;;;;;5006084;28;20168;-84
2022/03/07 12:45:05;;;;;;;3.95;1.30;;;14.20;49.10;;;;;;5027638;28;20041;-85